createdAt,value
2019-04-11T00:01:02.072Z,9.67
2019-04-11T00:03:31.551Z,9.87
2019-04-11T00:06:01.378Z,9.00
2019-04-11T00:08:32.112Z,11.00
2019-04-11T00:11:01.851Z,10.30
2019-04-11T00:13:33.417Z,10.43
2019-04-11T00:16:02.779Z,9.00
2019-04-11T00:18:32.460Z,7.90
2019-04-11T00:21:02.085Z,8.83
2019-04-11T00:23:32.371Z,9.07
2019-04-11T00:26:02.183Z,8.50
2019-04-11T00:28:31.963Z,9.83
2019-04-11T00:31:01.587Z,9.23
2019-04-11T00:33:31.990Z,10.53
2019-04-11T00:36:01.599Z,10.27
2019-04-11T00:38:32.030Z,9.43
2019-04-11T00:41:01.673Z,9.27
2019-04-11T00:43:36.948Z,8.87
2019-04-11T00:46:02.988Z,9.37
2019-04-11T00:48:33.486Z,10.20
2019-04-11T00:51:03.533Z,9.60
2019-04-11T00:53:34.049Z,7.77
2019-04-11T00:56:04.107Z,8.30
2019-04-11T00:58:33.926Z,8.97
2019-04-11T01:01:03.815Z,8.93
2019-04-11T01:03:33.913Z,9.43
2019-04-11T01:06:03.714Z,9.30
2019-04-11T01:08:33.219Z,7.43
2019-04-11T01:11:03.611Z,9.00
2019-04-11T01:13:42.572Z,8.53
2019-04-11T01:16:07.100Z,9.27
2019-04-11T01:18:36.624Z,8.30
2019-04-11T01:21:06.256Z,10.03
2019-04-11T01:23:35.815Z,9.03
2019-04-11T01:26:05.360Z,9.57
2019-04-11T01:28:34.806Z,8.00
2019-04-11T01:31:09.380Z,11.03
2019-04-11T01:33:40.079Z,10.87
2019-04-11T01:36:11.208Z,9.33
2019-04-11T01:38:46.326Z,9.60
2019-04-11T01:41:15.845Z,10.93
2019-04-11T01:43:55.228Z,10.07
2019-04-11T01:46:16.493Z,11.00
2019-04-11T01:51:40.268Z,10.00
2019-04-11T01:54:09.714Z,9.70
2019-04-11T01:56:39.228Z,9.87
2019-04-11T01:59:08.651Z,9.37
2019-04-11T02:01:56.922Z,9.33
2019-04-11T02:04:34.190Z,10.30
2019-04-11T02:07:04.611Z,9.93
2019-04-11T02:09:34.059Z,9.93
2019-04-11T02:12:03.725Z,8.30
2019-04-11T02:14:33.420Z,10.97
2019-04-11T02:17:02.979Z,8.27
2019-04-11T02:19:32.444Z,10.17
2019-04-11T02:22:12.519Z,9.13
2019-04-11T02:24:50.233Z,11.20
2019-04-11T02:27:21.277Z,9.87
2019-04-11T02:29:50.970Z,11.93
2019-04-11T02:32:24.609Z,10.07
2019-04-11T02:34:58.418Z,9.50
2019-04-11T02:37:25.703Z,10.37
2019-04-11T02:39:56.030Z,8.97
2019-04-11T02:42:27.714Z,9.00
2019-04-11T02:45:13.164Z,9.10
2019-04-11T02:47:32.660Z,9.87
2019-04-11T02:50:00.072Z,10.40
2019-04-11T02:52:31.119Z,8.13
2019-04-11T02:55:01.127Z,8.77
2019-04-11T02:57:32.245Z,8.50
2019-04-11T03:00:04.248Z,8.33
2019-04-11T03:02:34.710Z,8.90
2019-04-11T03:05:06.963Z,9.27
2019-04-11T03:07:37.953Z,9.50
2019-04-11T03:10:09.894Z,9.10
2019-04-11T03:12:40.499Z,10.10
2019-04-11T03:15:27.446Z,10.33
2019-04-11T03:17:45.608Z,11.70
2019-04-11T03:20:25.850Z,9.33
2019-04-11T03:22:51.154Z,8.80
2019-04-11T03:25:17.747Z,10.30
2019-04-11T03:27:49.276Z,11.10
2019-04-11T03:30:24.834Z,10.53
2019-04-11T03:38:19.504Z,9.10
2019-04-11T03:40:43.905Z,9.03
2019-04-11T03:43:10.709Z,9.43
2019-04-11T03:45:48.097Z,11.20
2019-04-11T03:48:15.557Z,8.47
2019-04-11T03:50:34.325Z,9.80
2019-04-11T03:53:06.406Z,9.50
2019-04-11T03:55:36.916Z,9.30
2019-04-11T03:58:08.497Z,11.03
2019-04-11T04:00:43.111Z,9.60
2019-04-11T04:03:11.370Z,11.53
2019-04-11T04:05:44.321Z,10.97
2019-04-11T04:08:14.000Z,11.70
2019-04-11T04:11:01.876Z,9.77
2019-04-11T04:13:32.120Z,10.97
2019-04-11T04:16:22.000Z,9.37
2019-04-11T04:19:03.611Z,10.87
2019-04-11T04:21:38.759Z,10.33
2019-04-11T04:24:34.105Z,9.57
2019-04-11T04:27:01.850Z,8.13
2019-04-11T04:29:32.422Z,10.40
2019-04-11T04:32:03.521Z,8.87
2019-04-11T04:34:35.967Z,10.17
2019-04-11T04:37:06.309Z,10.57
2019-04-11T04:39:37.714Z,7.80
2019-04-11T04:42:19.387Z,10.73
2019-04-11T04:44:42.337Z,10.47
2019-04-11T04:47:21.091Z,8.43
2019-04-11T04:49:43.703Z,8.20
2019-04-11T04:52:14.408Z,7.10
2019-04-11T04:54:44.473Z,7.50
2019-04-11T04:57:15.548Z,8.17
2019-04-11T04:59:46.816Z,8.40
2019-04-11T05:02:17.820Z,9.10
2019-04-11T05:04:47.961Z,7.60
2019-04-11T05:07:17.495Z,8.70
2019-04-11T05:09:48.027Z,8.20
2019-04-11T05:12:18.433Z,8.70
2019-04-11T05:14:49.686Z,7.70
2019-04-11T05:17:19.370Z,8.77
2019-04-11T05:19:48.855Z,7.80
2019-04-11T05:22:19.038Z,12.10
2019-04-11T05:24:48.577Z,11.80
2019-04-11T05:27:18.070Z,9.33
2019-04-11T05:29:47.881Z,12.07
2019-04-11T05:32:17.324Z,11.27
2019-04-11T05:34:46.804Z,9.03
2019-04-11T05:37:16.238Z,9.90
2019-04-11T05:39:45.681Z,11.00
2019-04-11T05:42:17.719Z,11.90
2019-04-11T05:44:47.090Z,12.37
2019-04-11T05:47:18.890Z,12.40
2019-04-11T05:49:54.656Z,10.30
2019-04-11T05:52:27.432Z,10.20
2019-04-11T05:54:57.051Z,8.97
2019-04-11T05:57:33.570Z,9.80
2019-04-11T05:59:59.135Z,10.33
2019-04-11T06:02:33.308Z,9.87
2019-04-11T06:05:04.539Z,10.20
2019-04-11T06:07:55.609Z,9.73
2019-04-11T06:10:33.979Z,9.20
2019-04-11T06:13:21.178Z,9.57
2019-04-11T06:15:56.661Z,9.67
2019-04-11T06:18:37.395Z,10.53
2019-04-11T06:21:07.515Z,10.57
2019-04-11T06:23:47.875Z,9.87
2019-04-11T06:26:19.027Z,10.10
2019-04-11T06:28:52.849Z,9.90
2019-04-11T06:31:41.034Z,10.60
2019-04-11T06:34:11.348Z,8.43
2019-04-11T06:37:01.380Z,8.03
2019-04-11T06:39:45.264Z,8.03
2019-04-11T06:42:32.497Z,9.73
2019-04-11T06:45:04.101Z,8.20
2019-04-11T06:47:51.357Z,9.20
2019-04-11T06:50:28.046Z,10.00
2019-04-11T06:52:58.208Z,10.10
2019-04-11T06:55:46.737Z,9.77
2019-04-11T06:58:21.486Z,7.63
2019-04-11T07:00:53.597Z,9.00
2019-04-11T07:03:29.265Z,9.30
2019-04-11T07:06:00.453Z,8.50
2019-04-11T07:08:32.103Z,9.20
2019-04-11T07:11:03.322Z,7.73
2019-04-11T07:13:34.416Z,7.07
2019-04-11T07:16:04.692Z,11.03
2019-04-11T07:18:41.608Z,9.53
2019-04-11T07:21:11.720Z,7.90
2019-04-11T07:23:59.709Z,7.70
2019-04-11T07:26:33.129Z,8.10
2019-04-11T07:29:07.361Z,7.20
2019-04-11T07:31:50.890Z,6.33
2019-04-11T07:34:39.302Z,8.13
2019-04-11T07:37:28.169Z,8.97
2019-04-11T07:40:03.107Z,7.40
2019-04-11T07:42:41.077Z,7.07
2019-04-11T07:45:25.364Z,10.70
2019-04-11T07:47:56.560Z,7.70
2019-04-11T07:50:26.266Z,8.50
2019-04-11T07:52:58.463Z,9.50
2019-04-11T07:55:28.612Z,8.40
2019-04-11T07:58:17.922Z,8.07
2019-04-11T08:00:53.344Z,7.53
2019-04-11T08:03:27.766Z,7.30
2019-04-11T08:06:00.890Z,7.50
2019-04-11T08:08:32.399Z,7.53
2019-04-11T08:11:06.708Z,9.17
2019-04-11T08:13:52.122Z,8.93
2019-04-11T08:19:40.772Z,8.90
2019-04-11T08:22:18.933Z,7.97
2019-04-11T08:24:58.807Z,7.53
2019-04-11T08:27:29.866Z,12.70
2019-04-11T08:30:01.008Z,8.43
2019-04-11T08:32:47.039Z,12.17
2019-04-11T08:35:24.238Z,17.73
2019-04-11T08:38:07.924Z,14.17
2019-04-11T08:40:55.478Z,10.80
2019-04-11T08:43:27.112Z,9.67
2019-04-11T08:46:15.003Z,9.10
2019-04-11T08:48:49.044Z,9.40
2019-04-11T08:51:20.204Z,10.17
2019-04-11T08:53:51.288Z,9.37
2019-04-11T08:56:23.066Z,9.20
2019-04-11T08:59:31.668Z,8.80
2019-04-11T09:02:02.498Z,8.97
2019-04-11T09:04:40.016Z,7.80
2019-04-11T09:07:11.758Z,8.90
2019-04-11T09:09:57.925Z,9.00
2019-04-11T09:12:28.783Z,8.20
2019-04-11T09:15:02.772Z,9.50
2019-04-11T09:17:34.464Z,9.13
2019-04-11T09:20:21.290Z,8.90
2019-04-11T09:22:53.349Z,8.77
2019-04-11T09:25:40.762Z,9.63
2019-04-11T09:28:13.304Z,8.63
2019-04-11T09:30:50.101Z,8.70
2019-04-11T09:33:38.523Z,9.17
2019-04-11T09:36:29.001Z,10.20
2019-04-11T09:39:08.655Z,10.07
2019-04-11T09:41:56.624Z,9.77
2019-04-11T09:44:44.790Z,10.90
2019-04-11T09:47:18.384Z,10.60
2019-04-11T09:49:49.509Z,10.13
2019-04-11T09:52:23.166Z,10.57
2019-04-11T09:55:12.907Z,8.87
2019-04-11T09:57:44.255Z,8.90
2019-04-11T10:00:22.762Z,10.20
2019-04-11T10:02:54.133Z,8.63
2019-04-11T10:05:38.321Z,9.40
2019-04-11T10:08:12.779Z,8.90
2019-04-11T10:11:01.772Z,10.43
2019-04-11T10:13:34.026Z,10.03
2019-04-11T10:16:15.855Z,8.00
2019-04-11T10:18:47.383Z,8.90
2019-04-11T10:21:19.363Z,8.70
2019-04-11T10:23:56.802Z,9.90
2019-04-11T10:26:28.084Z,10.43
2019-04-11T10:29:02.254Z,11.30
2019-04-11T10:31:34.621Z,10.37
2019-04-11T10:34:22.184Z,8.80
2019-04-11T10:36:53.727Z,7.30
2019-04-11T10:39:34.466Z,9.47
2019-04-11T10:42:10.548Z,9.83
2019-04-11T10:44:42.317Z,9.50
2019-04-11T10:47:14.498Z,10.33
2019-04-11T10:50:01.532Z,8.27
2019-04-11T10:52:32.626Z,9.37
2019-04-11T10:55:06.430Z,8.00
2019-04-11T10:57:46.718Z,9.40
2019-04-11T11:00:18.926Z,9.37
2019-04-11T11:03:09.581Z,8.00
2019-04-11T11:05:40.731Z,8.83
2019-04-11T11:08:17.453Z,7.37
2019-04-11T11:10:47.965Z,8.00
2019-04-11T11:13:21.948Z,8.03
2019-04-11T11:15:53.178Z,8.27
2019-04-11T11:19:03.220Z,6.73
2019-04-11T11:20:58.841Z,7.23
2019-04-11T11:23:44.978Z,7.50
2019-04-11T11:26:19.883Z,6.97
2019-04-11T11:28:48.826Z,8.67
2019-04-11T11:31:38.563Z,7.17
2019-04-11T11:34:14.620Z,7.30
2019-04-11T11:36:43.784Z,6.23
2019-04-11T11:39:15.259Z,6.80
2019-04-11T11:42:02.479Z,7.07
2019-04-11T11:44:37.121Z,7.50
2019-04-11T11:47:14.008Z,7.63
2019-04-11T11:49:51.900Z,6.93
2019-04-11T11:52:17.182Z,6.77
2019-04-11T11:54:48.187Z,6.47
2019-04-11T11:57:20.386Z,8.80
2019-04-11T11:59:52.369Z,6.73
2019-04-11T12:02:26.456Z,7.43
2019-04-11T12:05:07.796Z,7.07
2019-04-11T12:07:39.390Z,7.00
2019-04-11T12:10:26.110Z,6.37
2019-04-11T12:13:10.887Z,7.50
2019-04-11T12:15:39.325Z,8.07
2019-04-11T12:18:18.486Z,6.97
2019-04-11T12:20:55.568Z,7.90
2019-04-11T12:23:25.907Z,7.47
2019-04-11T12:25:55.749Z,7.40
2019-04-11T12:28:33.448Z,7.33
2019-04-11T12:31:09.288Z,8.13
2019-04-11T12:33:46.242Z,8.40
2019-04-11T12:36:17.349Z,7.47
2019-04-11T12:38:48.445Z,6.60
2019-04-11T12:41:20.194Z,6.93
2019-04-11T12:44:06.509Z,7.80
2019-04-11T12:46:43.179Z,7.80
2019-04-11T12:49:26.068Z,7.43
2019-04-11T12:52:13.818Z,7.77
2019-04-11T12:54:47.724Z,8.17
2019-04-11T12:57:35.172Z,8.23
2019-04-11T13:00:12.769Z,7.30
2019-04-11T13:03:02.368Z,7.03
2019-04-11T13:05:52.620Z,6.77
2019-04-11T13:08:40.158Z,9.10
2019-04-11T13:11:11.589Z,6.70
2019-04-11T13:13:58.772Z,7.40
2019-04-11T13:16:28.581Z,7.53
2019-04-11T13:18:59.666Z,6.77
2019-04-11T13:21:30.772Z,6.47
2019-04-11T13:24:18.106Z,6.73
2019-04-11T13:27:05.883Z,7.80
2019-04-11T13:29:45.928Z,7.90
2019-04-11T13:32:20.056Z,8.60
2019-04-11T13:34:53.685Z,6.37
2019-04-11T13:37:24.785Z,7.37
2019-04-11T13:40:01.733Z,5.37
2019-04-11T13:42:48.880Z,6.17
2019-04-11T13:45:18.993Z,9.10
2019-04-11T13:48:05.997Z,7.13
2019-04-11T13:50:36.322Z,8.00
2019-04-11T13:53:22.838Z,6.73
2019-04-11T13:55:52.304Z,7.53
2019-04-11T13:58:32.117Z,7.33
2019-04-11T14:01:01.734Z,7.63
2019-04-11T14:03:48.928Z,9.13
2019-04-11T14:06:20.455Z,7.87
2019-04-11T14:09:07.707Z,8.40
2019-04-11T14:11:38.861Z,8.57
2019-04-11T14:14:12.962Z,8.20
2019-04-11T14:16:44.045Z,8.43
2019-04-11T14:19:26.961Z,6.37
2019-04-11T14:21:56.672Z,6.73
2019-04-11T14:24:36.597Z,7.20
2019-04-11T14:27:19.682Z,6.97
2019-04-11T14:29:56.744Z,8.03
2019-04-11T14:32:27.835Z,7.60
2019-04-11T14:35:15.377Z,8.03
2019-04-11T14:37:46.454Z,8.10
2019-04-11T14:40:27.091Z,8.70
2019-04-11T14:43:00.705Z,7.87
2019-04-11T14:45:33.732Z,7.27
2019-04-11T14:48:20.780Z,8.63
2019-04-11T14:50:57.773Z,8.07
2019-04-11T14:53:37.978Z,7.90
2019-04-11T14:56:09.055Z,7.80
2019-04-11T14:58:56.193Z,7.50
2019-04-11T15:01:28.177Z,7.83
2019-04-11T15:04:02.736Z,5.80
2019-04-11T15:06:39.926Z,7.47
2019-04-11T15:09:11.371Z,6.70
2019-04-11T15:11:51.553Z,6.13
2019-04-11T15:14:32.423Z,5.77
2019-04-11T15:17:09.463Z,6.60
2019-04-11T15:19:40.581Z,7.40
2019-04-11T15:22:28.064Z,6.30
2019-04-11T15:25:15.289Z,6.60
2019-04-11T15:27:55.045Z,5.87
2019-04-11T15:30:43.384Z,7.20
2019-04-11T15:33:29.363Z,7.37
2019-04-11T15:36:00.538Z,7.10
2019-04-11T15:38:37.307Z,7.80
2019-04-11T15:41:08.550Z,7.50
2019-04-11T15:43:42.078Z,7.40
2019-04-11T15:46:14.696Z,6.90
2019-04-11T15:48:47.990Z,5.30
2019-04-11T15:51:19.070Z,8.33
2019-04-11T15:53:51.695Z,9.50
2019-04-11T15:56:41.708Z,7.13
2019-04-11T15:59:13.138Z,7.53
2019-04-11T16:01:50.693Z,7.60
2019-04-11T16:04:30.578Z,7.77
2019-04-11T16:07:11.779Z,8.07
2019-04-11T16:09:46.587Z,7.27
2019-04-11T16:12:35.950Z,7.73
2019-04-11T16:15:08.775Z,6.97
2019-04-11T16:17:54.777Z,7.33
2019-04-11T16:20:24.903Z,6.67
2019-04-11T16:22:56.086Z,6.83
2019-04-11T16:25:28.943Z,6.73
2019-04-11T16:28:14.491Z,7.03
2019-04-11T16:30:45.611Z,6.90
2019-04-11T16:33:16.691Z,6.40
2019-04-11T16:35:47.790Z,6.90
2019-04-11T16:38:19.576Z,6.90
2019-04-11T16:41:07.457Z,5.43
2019-04-11T16:43:38.560Z,7.43
2019-04-11T16:46:18.398Z,7.53
2019-04-11T16:48:47.897Z,7.53
2019-04-11T16:51:17.322Z,6.90
2019-04-11T16:53:46.773Z,6.30
2019-04-11T16:56:16.248Z,6.80
2019-04-11T16:58:49.312Z,6.67
2019-04-11T17:01:16.860Z,6.50
2019-04-11T17:03:46.342Z,6.83
2019-04-11T17:06:20.389Z,6.83
2019-04-11T17:08:51.744Z,6.77
2019-04-11T17:11:21.330Z,6.80
2019-04-11T17:13:50.760Z,7.73
2019-04-11T17:16:20.393Z,5.90
2019-04-11T17:18:49.842Z,6.70
2019-04-11T17:21:19.267Z,6.00
2019-04-11T17:23:51.684Z,5.70
2019-04-11T17:26:23.189Z,6.60
2019-04-11T17:28:54.530Z,5.80
2019-04-11T17:31:25.940Z,6.33
2019-04-11T17:33:56.620Z,6.30
2019-04-11T17:36:26.291Z,5.80
2019-04-11T17:38:55.756Z,5.07
2019-04-11T17:41:25.438Z,5.20
2019-04-11T17:43:54.883Z,6.43
2019-04-11T17:46:26.722Z,5.90
2019-04-11T17:48:55.542Z,6.23
2019-04-11T17:51:26.549Z,5.80
2019-04-11T17:53:56.329Z,5.27
2019-04-11T17:56:25.763Z,5.63
2019-04-11T17:58:57.623Z,6.77
2019-04-11T18:01:26.498Z,6.57
2019-04-11T18:03:55.944Z,7.20
2019-04-11T18:06:25.391Z,6.93
2019-04-11T18:08:55.167Z,7.30
2019-04-11T18:11:26.212Z,6.47
2019-04-11T18:13:55.790Z,7.37
2019-04-11T18:16:25.264Z,7.60
2019-04-11T18:18:54.730Z,6.37
2019-04-11T18:21:24.308Z,6.77
2019-04-11T18:23:53.783Z,7.40
2019-04-11T18:26:23.788Z,6.40
2019-04-11T18:28:53.229Z,7.73
2019-04-11T18:31:24.760Z,7.67
2019-04-11T18:33:53.873Z,6.83
2019-04-11T18:36:23.300Z,6.23
2019-04-11T18:38:52.777Z,6.90
2019-04-11T18:41:22.895Z,6.90
2019-04-11T18:43:52.328Z,6.27
2019-04-11T18:46:22.262Z,6.40
2019-04-11T18:48:54.353Z,6.17
2019-04-11T18:51:23.250Z,5.13
2019-04-11T18:53:53.310Z,7.33
2019-04-11T18:56:22.748Z,7.90
2019-04-11T18:58:52.187Z,7.40
2019-04-11T19:01:21.741Z,7.87
2019-04-11T19:03:51.248Z,7.20
2019-04-11T19:06:27.724Z,7.33
2019-04-11T19:08:52.543Z,9.10
2019-04-11T19:11:22.361Z,7.73
2019-04-11T19:13:52.075Z,7.03
2019-04-11T19:16:21.863Z,5.97
2019-04-11T19:18:51.305Z,7.47
2019-04-11T19:21:21.300Z,8.50
2019-04-11T19:23:50.938Z,8.30
2019-04-11T19:26:22.748Z,8.33
2019-04-11T19:28:54.941Z,7.30
2019-04-11T19:31:27.128Z,8.47
2019-04-11T19:33:53.892Z,8.20
2019-04-11T19:36:23.349Z,6.70
2019-04-11T19:38:52.824Z,8.23
2019-04-11T19:41:22.256Z,8.93
2019-04-11T19:43:51.705Z,7.57
2019-04-11T19:46:21.172Z,6.47
2019-04-11T19:48:50.626Z,8.40
2019-04-11T19:51:20.059Z,7.70
2019-04-11T19:53:49.543Z,10.03
2019-04-11T19:56:29.609Z,8.97
2019-04-11T19:58:59.075Z,9.50
2019-04-11T20:01:28.524Z,8.57
2019-04-11T20:03:57.966Z,7.67
2019-04-11T20:06:27.428Z,9.50
2019-04-11T20:08:56.869Z,7.27
2019-04-11T20:11:26.313Z,9.90
2019-04-11T20:13:55.806Z,7.10
2019-04-11T20:16:25.248Z,8.07
2019-04-11T20:18:57.449Z,9.40
2019-04-11T20:21:25.957Z,7.73
2019-04-11T20:23:55.387Z,8.43
2019-04-11T20:26:24.841Z,8.83
2019-04-11T20:28:54.317Z,8.53
2019-04-11T20:31:23.762Z,8.30
2019-04-11T20:33:53.203Z,8.03
2019-04-11T20:36:32.909Z,7.60
2019-04-11T20:38:54.036Z,10.40
2019-04-11T20:41:23.805Z,10.23
2019-04-11T20:43:56.917Z,10.17
2019-04-11T20:46:28.821Z,8.87
2019-04-11T20:48:55.753Z,9.07
2019-04-11T20:51:25.212Z,9.53
2019-04-11T20:53:54.665Z,10.87
2019-04-11T20:56:24.696Z,10.50
2019-04-11T20:58:54.255Z,9.40
2019-04-11T21:01:26.011Z,8.90
2019-04-11T21:03:54.904Z,8.00
2019-04-11T21:06:24.386Z,11.03
2019-04-11T21:08:53.875Z,8.70
2019-04-11T21:11:23.358Z,10.83
2019-04-11T21:13:52.797Z,9.47
2019-04-11T21:16:22.245Z,9.70
2019-04-11T21:18:54.485Z,8.30
2019-04-11T21:21:25.211Z,9.73
2019-04-11T21:23:54.099Z,7.07
2019-04-11T21:26:23.548Z,8.00
2019-04-11T21:28:52.983Z,7.57
2019-04-11T21:31:22.447Z,9.57
2019-04-11T21:33:51.887Z,9.97
2019-04-11T21:36:21.323Z,7.90
2019-04-11T21:38:50.800Z,9.60
2019-04-11T21:41:20.239Z,8.70
2019-04-11T21:43:49.685Z,7.80
2019-04-11T21:46:19.146Z,7.83
2019-04-11T21:48:48.579Z,9.23
2019-04-11T21:51:18.013Z,8.53
2019-04-11T21:53:47.558Z,8.27
2019-04-11T21:56:18.649Z,8.47
2019-04-11T21:58:50.145Z,8.60
2019-04-11T22:01:21.991Z,7.60
2019-04-11T22:03:57.146Z,9.63
2019-04-11T22:06:23.907Z,9.20
2019-04-11T22:08:53.394Z,7.83
2019-04-11T22:11:22.846Z,9.17
2019-04-11T22:13:52.301Z,8.80
2019-04-11T22:16:21.775Z,7.67
2019-04-11T22:18:51.217Z,9.20
2019-04-11T22:21:20.650Z,9.67
2019-04-11T22:23:50.119Z,8.50
2019-04-11T22:26:19.567Z,7.87
2019-04-11T22:28:49.013Z,8.00
2019-04-11T22:31:18.475Z,8.20
2019-04-11T22:33:52.326Z,8.23
2019-04-11T22:36:41.130Z,7.90
2019-04-11T22:39:11.451Z,9.23
2019-04-11T22:41:40.891Z,6.70
2019-04-11T22:44:10.367Z,7.47
2019-04-11T22:46:39.807Z,7.93
2019-04-11T22:49:09.506Z,8.90
2019-04-11T22:51:42.664Z,9.10
2019-04-11T22:54:12.936Z,7.50
2019-04-11T22:56:41.769Z,9.97
2019-04-11T22:59:14.002Z,9.90
2019-04-11T23:01:46.724Z,10.33
2019-04-11T23:04:16.826Z,7.20
2019-04-11T23:06:47.263Z,9.23
2019-04-11T23:09:19.479Z,9.40
2019-04-11T23:11:47.851Z,7.90
2019-04-11T23:14:17.328Z,8.50
2019-04-11T23:16:46.776Z,8.40
2019-04-11T23:19:16.218Z,7.53
2019-04-11T23:21:45.740Z,7.97
2019-04-11T23:24:15.174Z,7.00
2019-04-11T23:26:44.694Z,9.20
2019-04-11T23:29:16.186Z,7.10
2019-04-11T23:31:45.320Z,10.07
2019-04-11T23:34:14.793Z,6.87
2019-04-11T23:36:44.248Z,8.87
2019-04-11T23:39:13.697Z,8.27
2019-04-11T23:41:43.213Z,8.20
2019-04-11T23:44:12.690Z,8.33
2019-04-11T23:46:42.121Z,8.47
2019-04-11T23:49:11.577Z,8.47
2019-04-11T23:51:41.066Z,10.70
2019-04-11T23:54:10.507Z,9.53
2019-04-11T23:56:39.954Z,8.70
2019-04-11T23:59:09.455Z,9.50
